ADDS TAF Data INFO
IDs: Format: Raw Decoded Include METARs

Data at: 1238 UTC 25 Jul 2017

Region: TOP
KATL 251129Z 2512/2618 27005KT P6SM SCT150 BKN200
  FM251400 32007KT P6SM VCSH BKN030 BKN100
  TEMPO 2518/2522 4SM -TSRA BKN035CB
  FM252200 29007KT P6SM SCT030 BKN250
  FM260600 31005KT P6SM SCT250
  FM261200 03005KT P6SM SCT250


KBOS 251141Z 2512/2618 36008KT P6SM SCT008 OVC015
  FM251400 02008KT P6SM OVC020
  FM251800 04007KT P6SM OVC025
  FM252100 06006KT P6SM SCT025
  FM261400 06005KT P6SM FEW250


KBWI 251136Z 2512/2618 30007KT P6SM SKC
  FM251800 33009KT P6SM BKN040
  FM260100 03006KT P6SM SCT040
  FM260900 05005KT P6SM BKN035
  FM261700 11005KT P6SM BKN035


KCLE 251134Z 2512/2618 36010KT P6SM OVC030
  FM251500 01010KT P6SM BKN035
  FM252000 01010KT P6SM SCT040
  FM260200 08006KT P6SM SCT035
  FM260900 14004KT P6SM SCT250
  FM261500 20008KT P6SM SCT250


KCLT 251126Z 2512/2612 03003KT P6SM BKN250
  TEMPO 2512/2513 5SM BR BKN002
  FM251800 05005KT P6SM SCT050
  FM252100 10005KT P6SM BKN060
  FM260400 12003KT P6SM SCT060
  FM261000 06006KT P6SM BKN050


KCVG 251140Z 2512/2618 07007KT P6SM SKC
  FM260700 08003KT 5SM BR SKC
  FM261300 15005KT P6SM FEW250


KDCA 251136Z 2512/2612 33009KT P6SM BKN220
  FM251800 33010KT P6SM BKN040
  FM260100 01006KT P6SM SCT040
  FM261100 05005KT P6SM BKN040


KDEN 251130Z 2512/2618 22010KT P6SM SCT150 BKN240
  FM251500 25008KT P6SM BKN140 OVC220
  FM252100 29015KT P6SM VCTS SCT090CB BKN120
  TEMPO 2521/2601 VRB20G35KT -TSRA BKN080CB
  FM260300 30009KT P6SM VCSH FEW090 BKN150
  FM260700 35012KT P6SM SCT080 BKN120
  FM261300 36009KT P6SM BKN030 BKN090


KDFW 251136Z 2512/2618 17008KT P6SM SCT100
  FM251500 18011KT P6SM FEW060


KDTW 251120Z 2512/2618 35004KT P6SM FEW250
  FM251600 06006KT P6SM SCT045
  FM260000 11004KT P6SM SKC
  FM260600 15003KT P6SM SCT200


KEWR 251135Z 2512/2618 01006KT P6SM VCSH BKN009 BKN025
  TEMPO 2513/2514 BKN015
  FM251400 02006KT P6SM OVC015
  FM251600 03007KT P6SM OVC025
  FM252100 05007KT P6SM BKN035
  FM260500 04006KT P6SM SCT035
  FM261700 10006KT P6SM SCT050


KFLL 251134Z 2512/2612 VRB03KT P6SM FEW012 FEW025 SCT250
  FM251600 11010KT P6SM VCTS SCT030CB SCT250
  FM260000 VRB03KT P6SM SCT030


KIAD 251136Z 2512/2618 32008KT P6SM SKC
  FM251800 33010KT P6SM BKN040
  FM260000 VRB03KT P6SM SCT040
  FM261100 03004KT P6SM BKN050
  FM261400 09005KT P6SM BKN050


KIAH 251123Z 2512/2618 18003KT P6SM SCT150 OVC220
  FM251600 18008KT P6SM SCT035 BKN250
  FM252100 15012KT P6SM FEW040 BKN180
  FM260600 16006KT P6SM SCT025 BKN180
  TEMPO 2614/2616 BKN025


KJFK 251135Z 2512/2618 07006KT P6SM BKN018
  TEMPO 2512/2513 SCT018 OVC040
  FM251500 06008KT P6SM OVC025
  FM252200 06009KT P6SM BKN040
  FM260500 05007KT P6SM SCT040
  FM261400 06006KT P6SM SCT200
  FM261700 12008KT P6SM SCT200


KLAS 251226Z 2512/2618 VRB06KT P6SM BKN030 OVC080
  FM251700 16011KT P6SM VCTS FEW030 SCT080CB BKN150
  TEMPO 2520/2524 VRB15G25KT -TSRA BKN080CB
  FM260100 19012KT P6SM VCTS BKN100CB BKN200
  FM260700 VRB06KT P6SM SCT150 BKN200


KLAX 251121Z 2512/2618 27006KT P6SM OVC012
  FM251800 24006KT P6SM SCT015
  FM252000 27012KT P6SM FEW015
  FM260400 VRB03KT P6SM OVC008
  FM261700 23006KT P6SM SCT010


KLGA 251135Z 2512/2612 05006KT P6SM BKN015
  TEMPO 2512/2513 SCT015 SCT025 BKN050
  FM251600 06008KT P6SM OVC025
  FM252100 05009KT P6SM BKN035
  FM260500 05007KT P6SM SCT040


KMCO 251140Z 2512/2612 VRB03KT P6SM FEW200 BKN300
  FM251400 VRB05KT P6SM FEW030 SCT300
  FM251900 22006KT P6SM SCT060 SCT300
  FM260000 VRB04KT P6SM SCT300


KMDW 251125Z 2512/2612 13005KT P6SM FEW025 FEW250
  FM251600 13009KT P6SM SCT250
  FM260100 15006KT P6SM SCT250


KMEM 251120Z 2512/2612 21005KT P6SM SCT030
  FM251800 22007KT P6SM VCTS SCT030CB BKN050
  FM260100 18006KT P6SM SCT150


KMIA 251134Z 2512/2612 VRB03KT P6SM FEW020 SCT250
  FM251700 12008KT P6SM VCTS SCT030CB SCT250
  FM260100 VRB03KT P6SM SCT030


KMSP 251120Z 2512/2618 16009KT P6SM VCTS FEW050CB BKN110
  FM251500 16012G20KT P6SM SCT020 BKN050
  FM260300 17004KT P6SM SHRA VCTS BKN040CB BKN110
  PROB30 2604/2608 2SM TSRA SCT015 BKN040CB
  FM261100 36005KT P6SM FEW005 OVC250


KORD 251125Z 2512/2618 13005KT P6SM FEW025 FEW250
  FM251600 14009KT P6SM SCT250
  FM260100 15006KT P6SM SCT250
  FM261500 20009KT P6SM BKN250


KPDX 251120Z 2512/2612 30004KT P6SM SCT250
  FM252100 31009KT P6SM SKC
  FM260700 32004KT P6SM SCT250


KPHL 251140Z 2512/2618 05005KT P6SM SCT009 BKN012 OVC050
  FM251400 04006KT P6SM SCT012 BKN050
  FM251800 36008KT P6SM BKN050
  FM260800 VRB03KT P6SM OVC025


KPHX 251120Z 2512/2618 12006KT P6SM FEW080 SCT110 BKN250
  FM252000 18006KT P6SM SCT110 SCT250
  FM252200 24010KT P6SM SCT110 SCT250
  FM261100 14005KT P6SM SCT110 SCT250


KPIT 251120Z 2512/2618 29007KT P6SM OVC025
  FM251500 32008KT P6SM BKN035
  FM252000 35006KT P6SM SCT045


KSAN 251120Z 2512/2618 VRB04KT P6SM BKN016
  FM251800 27009KT P6SM FEW020 SCT150
  FM260200 VRB04KT P6SM SCT016
  FM260400 VRB04KT P6SM BKN015


KSEA 251120Z 2512/2618 03004KT P6SM FEW250
  FM251900 32007KT P6SM SKC
  FM260400 02005KT P6SM SKC
  FM261200 20004KT P6SM SKC


KSFO 251120Z 2512/2618 20008KT P6SM FEW013 BKN015
  FM251700 VRB05KT P6SM FEW015
  FM252100 25015KT P6SM FEW250
  FM260300 28007KT P6SM SCT250
  FM260800 26006KT P6SM BKN015


KSLC 251120Z 2512/2618 14010KT P6SM VCSH SCT070 BKN090
  FM251300 11008KT P6SM VCSH SCT080 BKN100
  FM251900 32008KT P6SM VCSH SCT080 BKN120
  FM252200 31007KT P6SM SCT100 BKN140
  FM260300 16007KT P6SM SCT120


KSTL 251120Z 2512/2618 10008KT P6SM SCT050
  FM261400 19006KT P6SM FEW070


KTPA 251122Z 2512/2612 14003KT P6SM FEW045 SCT250
  FM251500 24006KT P6SM SCT025 SCT250
  FM252100 28007KT P6SM SCT040 SCT250
  FM260200 VRB03KT P6SM FEW050 SCT250